Flight Track Log - Related Links

Times and Time Zones

All times are in EDT time to prevent confusion due to time zone crossing. See the TAM3095 flight status page for this flight to view local times or setup timezone preferences in your user account.

Time Position Orientation Groundspeed Altitude Reporting Facility
EDT Latitude Longitude Course Direction KTS MPH feet Rate Location/Type
Tue 08:17:00 PM -20.2740 -40.2970 207° Southwest 143 165 800  Level FlightAware ADS-B
Tue 08:17:12 PM -20.2820 -40.3000 199° South 137 158 1,500 3,070 Climbing FlightAware ADS-B
Tue 08:17:43 PM -20.3000 -40.3060 197° South 130 150 3,000 2,357 Climbing FlightAware ADS-B
Tue 08:18:08 PM -20.3150 -40.3120 201° Southwest 159 183 3,700 1,527 Climbing FlightAware ADS-B
Tue 08:18:38 PM -20.3390 -40.3220 201° Southwest 202 232 4,400 2,111 Climbing FlightAware ADS-B
Tue 08:19:02 PM -20.3630 -40.3320 201° Southwest 226 260 5,600 3,083 Climbing FlightAware ADS-B
Tue 08:19:50 PM -20.4090 -40.3530 203° Southwest 244 281 8,100 2,917 Climbing FlightAware ADS-B
Tue 08:20:14 PM -20.4350 -40.3640 202° Southwest 261 300 9,100 2,073 Climbing FlightAware ADS-B
Tue 08:20:45 PM -20.4740 -40.3810 202° Southwest 303 349 10,000 1,865 Climbing FlightAware ADS-B
Tue 08:21:28 PM -20.5340 -40.4070 202° Southwest 347 399 11,400 2,233 Climbing FlightAware ADS-B
Tue 08:22:11 PM -20.5970 -40.4350 203° Southwest 365 420 13,200 2,925 Climbing FlightAware ADS-B
Tue 08:22:48 PM -20.6580 -40.4610 202° Southwest 362 417 15,300 3,300 Climbing FlightAware ADS-B
Tue 08:23:31 PM -20.7240 -40.4900 202° Southwest 357 411 17,600 3,101 Climbing FlightAware ADS-B
Tue 08:24:17 PM -20.7970 -40.5220 202° Southwest 355 409 19,900 2,932 Climbing FlightAware ADS-B
Tue 08:24:59 PM -20.8580 -40.5480 202° Southwest 350 403 21,900 2,530 Climbing FlightAware ADS-B
Tue 08:25:40 PM -20.9080 -40.5920 219° Southwest 344 396 23,400 2,605 Climbing FlightAware ADS-B
Tue 08:26:15 PM -20.9470 -40.6340 225° Southwest 335 386 25,200 2,538 Climbing FlightAware ADS-B
Tue 08:26:58 PM -20.9970 -40.6860 224° Southwest 342 394 26,700 1,650 Climbing FlightAware ADS-B
Tue 08:27:35 PM -21.0360 -40.7270 224° Southwest 355 409 27,400 1,571 Climbing FlightAware ADS-B
Tue 08:28:22 PM -21.0940 -40.7880 224° Southwest 362 417 28,900 1,870 Climbing FlightAware ADS-B
Tue 08:28:52 PM -21.1300 -40.8260 225° Southwest 363 418 29,800 917 Climbing FlightAware ADS-B
Tue 08:29:34 PM -21.1810 -40.8790 224° Southwest 358 412 30,000 135 Climbing FlightAware ADS-B
Tue 08:30:21 PM -21.2380 -40.9390 224° Southwest 368 423 30,000  Level FlightAware ADS-B
Tue 08:30:57 PM -21.2820 -40.9850 224° Southwest 369 425 30,000  Level FlightAware ADS-B
Tue 08:31:51 PM -21.3440 -41.0510 225° Southwest 371 427 30,000  Level FlightAware ADS-B
Tue 08:32:28 PM -21.3920 -41.1010 224° Southwest 371 427 30,000  Level FlightAware ADS-B
Tue 08:33:10 PM -21.4460 -41.1570 224° Southwest 371 427 30,000  Level FlightAware ADS-B
Tue 08:33:57 PM -21.5020 -41.2170 225° Southwest 371 427 30,000  Level FlightAware ADS-B
Tue 08:34:52 PM -21.5710 -41.2900 225° Southwest 371 427 30,000  Level FlightAware ADS-B
Tue 08:35:32 PM -21.6180 -41.3400 225° Southwest 373 429 30,000  Level FlightAware ADS-B
Tue 08:36:13 PM -21.6660 -41.3910 225° Southwest 377 434 30,000  Level FlightAware ADS-B
Tue 08:37:00 PM -21.7280 -41.4560 224° Southwest 381 438 30,000 -414 Level FlightAware ADS-B
Tue 08:37:40 PM -21.7800 -41.5120 225° Southwest 372 428 29,400 -2,147 Descending FlightAware ADS-B
Tue 08:38:35 PM -21.8440 -41.5800 225° Southwest 390 449 26,600 -2,061 Descending FlightAware ADS-B
Tue 08:39:19 PM -21.9040 -41.6440 225° Southwest 374 430 26,000 -429 Descending FlightAware ADS-B
Tue 08:39:59 PM -21.9550 -41.6980 224° Southwest 376 433 26,000  Level FlightAware ADS-B
Tue 08:40:44 PM -22.0090 -41.7560 225° Southwest 375 432 26,000  Level FlightAware ADS-B
Tue 08:41:23 PM -22.0570 -41.8070 225° Southwest 376 433 26,000  Level FlightAware ADS-B
Tue 08:42:07 PM -22.1140 -41.8680 225° Southwest 376 433 26,000  Level FlightAware ADS-B
Tue 08:42:41 PM -22.1530 -41.9100 225° Southwest 376 433 26,000  Level FlightAware ADS-B
Tue 08:43:22 PM -22.2050 -41.9660 225° Southwest 376 433 26,000  Level FlightAware ADS-B
Tue 08:44:07 PM -22.2610 -42.0260 225° Southwest 376 433 26,000  Level FlightAware ADS-B
Tue 08:44:39 PM -22.3010 -42.0690 225° Southwest 376 433 26,000  Level FlightAware ADS-B
Tue 08:45:21 PM -22.3540 -42.1250 224° Southwest 376 433 26,000  Level FlightAware ADS-B
Tue 08:46:05 PM -22.4060 -42.1840 226° Southwest 376 433 26,000  Level FlightAware ADS-B
Tue 08:46:48 PM -22.4540 -42.2450 230° Southwest 375 432 26,000  Level FlightAware ADS-B
Tue 08:47:30 PM -22.5010 -42.3070 231° Southwest 377 434 26,000  Level FlightAware ADS-B
Tue 08:48:10 PM -22.5280 -42.3750 247° West 380 437 26,000  Level FlightAware ADS-B
Tue 08:48:52 PM -22.5570 -42.4490 247° West 379 436 26,000  Level FlightAware ADS-B
Tue 08:49:34 PM -22.5850 -42.5220 247° West 380 437 26,000  Level FlightAware ADS-B
Tue 08:50:18 PM -22.6160 -42.6000 247° West 381 438 26,000 -977 Level FlightAware ADS-B
Tue 08:51:00 PM -22.6450 -42.6750 247° West 390 449 24,600 -2,143 Descending FlightAware ADS-B
Tue 08:51:42 PM -22.6740 -42.7500 247° West 382 440 23,000 -2,268 Descending FlightAware ADS-B
Tue 08:52:22 PM -22.7010 -42.8190 247° West 375 432 21,500 -2,093 Descending FlightAware ADS-B
Tue 08:53:08 PM -22.7040 -42.9030 268° West 369 425 20,000 -1,692 Descending FlightAware ADS-B
Tue 08:53:40 PM -22.6890 -42.9590 286° West 355 409 19,300 -1,378 Descending FlightAware ADS-B
Tue 08:54:22 PM -22.6710 -43.0290 286° West 345 397 18,300 -1,535 Descending FlightAware ADS-B
Tue 08:55:06 PM -22.6530 -43.1010 285° West 336 387 17,100 -2,286 Descending FlightAware ADS-B
Tue 08:55:46 PM -22.6360 -43.1690 285° West 359 413 15,100 -2,780 Descending FlightAware ADS-B
Tue 08:56:28 PM -22.6160 -43.2430 286° West 359 413 13,300 -2,512 Descending FlightAware ADS-B
Tue 08:57:12 PM -22.5970 -43.3170 286° West 355 409 11,500 -2,051 Descending FlightAware ADS-B
Tue 08:57:47 PM -22.5870 -43.3570 285° West 357 411 10,600 -1,139 Descending FlightAware ADS-B
Tue 08:58:31 PM -22.5720 -43.4220 284° West 318 366 10,000 -923 Descending FlightAware ADS-B
Tue 08:58:52 PM -22.5650 -43.4520 284° West 294 338 9,600 -1,839 Descending FlightAware ADS-B
Tue 08:59:33 PM -22.5500 -43.5130 285° West 275 316 8,100 -1,562 Descending FlightAware ADS-B
Tue 09:00:05 PM -22.5410 -43.5490 285° West 277 319 7,700 -600 Descending FlightAware ADS-B
Tue 09:00:13 PM -22.5390 -43.5660 277° West 281 323 7,700 -421 Level FlightAware ADS-B
Tue 09:01:02 PM -22.5800 -43.6060 222° Southwest 283 326 7,300 -791 Descending FlightAware ADS-B
Tue 09:01:44 PM -22.6510 -43.6030 178° South 293 337 6,500 -1,038 Descending FlightAware ADS-B
Tue 09:01:54 PM -22.6590 -43.5890 122° Southeast 285 328 6,400 -1,350 Descending FlightAware ADS-B
Tue 09:02:24 PM -22.6790 -43.5530 121° Southeast 281 323 5,600 -1,588 Descending FlightAware ADS-B
Tue 09:03:02 PM -22.6980 -43.5200 122° Southeast 269 310 4,600 -1,200 Descending FlightAware ADS-B
Tue 09:03:34 PM -22.7190 -43.4750 117° Southeast 225 259 4,200 -857 Descending FlightAware ADS-B
Tue 09:03:44 PM -22.7190 -43.4640 90° East 205 236 4,000 -889 Descending FlightAware ADS-B
Tue 09:04:55 PM -22.7230 -43.4100 95° East 180 207 3,000 -897 Descending FlightAware ADS-B
Tue 09:05:11 PM -22.7270 -43.3950 106° East 168 193 2,700 -980 Descending FlightAware ADS-B
Tue 09:05:44 PM -22.7390 -43.3750 123° Southeast 147 169 2,200 -1,024 Descending FlightAware ADS-B
Tue 09:05:52 PM -22.7430 -43.3690 126° Southeast 145 167 2,000 -750 Descending FlightAware ADS-B
Tue 09:06:24 PM -22.7540 -43.3520 125° Southeast 126 145 1,700 -632 Descending FlightAware ADS-B
Tue 09:06:49 PM -22.7630 -43.3390 127° Southeast 122 140 1,400 -612 Descending FlightAware ADS-B
Tue 09:07:13 PM -22.7700 -43.3270 122° Southeast 123 142 1,200 -536 Descending FlightAware ADS-B
Tue 09:07:45 PM -22.7780 -43.3150 126° Southeast 124 143 900 -787 Descending FlightAware ADS-B
Tue 09:08:14 PM -22.7930 -43.2920 125° Southeast 125 144 400 -889 Descending FlightAware ADS-B
Tue 09:08:39 PM -22.8020 -43.2790 127° Southeast 127 146 100 -720 Descending FlightAware ADS-B
Tue 09:09:11 PM -22.8100 -43.2680 128° Southeast 129 148 -188 Descending FlightAware ADS-B
Tue 09:09:36 PM -22.8170 -43.2570 125° Southeast 129 148  Level FlightAware ADS-B
Tue 09:10:08 PM -22.8200 -43.2510 118° Southeast 129 148  Level FlightAware ADS-B
Tue 09:10:40 PM -22.8200 -43.2490 90° East 129 148  Level FlightAware ADS-B
Tue 09:11:21 PM -22.8200 -43.2500 270° West 129 148  Level FlightAware ADS-B
Tue 09:11:48 PM -22.8240 -43.2360 107° East 129 148  Level FlightAware ADS-B
Tue 09:13:36 PM -22.8150 -43.2510 303° West  Level FlightAware ADS-B
Tue 09:14:13 PM -22.8150 -43.2490 90° East  Level FlightAware ADS-B
Tue 09:14:49 PM -22.8150 -43.2480 90° East  Level FlightAware ADS-B
Tue 09:17:00 PM -22.8089 -43.2436 33° Northeast  Level Estimated

Login

Don't have an account? Register now (free) for customized features, flight alerts, and more!